Terminal Aerodrome Forecast
Issued by NWS

Current Version | Previous Version | Text Only | Print | Product List | Glossary Off
Versions: 1 2 3 4 5 6 7 8 9 10 11 12 13 14 15 16 17 18 19

000
FTUS41 KPBZ 190500
TAFHLG
TAF
KHLG 190521Z 1906/2006 03003KT P6SM SCT070
     FM190800 01002KT 1 1/2SM BR SCT005
     FM190900 00000KT 1/2SM FG VV002
     FM191300 VRB04KT P6SM SCT250
     FM200300 17006KT P6SM VCSH BKN040=

USA.gov is the U.S. government's official web portal to all federal, state and local government web resources and services.